Hooper, Washington
Current Conditions -  °F | °C
As of 2:29 PM on Saturday 20 Dec 2014 (Local Time) from KALW Reporting Station
Moderate Rain Moderate Rain  
Wind Chill: 50°   Ceiling: 4200
Heat Index: 50°   Visibility: 2.5mi
Dew Point: 42°   Wind: 15mph
Humidity: 74%   Direction: 170°S
Pressure: 29.72"   Gusts: NA
Location:  46.75°N, 118.15°W
Report Text: KALW 202229Z 17013KT 2 1/2SM RA BKN042 OVC050 10/06 A2972 RMK AO2 P0004 T01000056
Loading
Personal Weather Stations






























Interactive Weather Map New forecast layout! Learn more

10-Day Weather Forecast

Advertisements
Track Severe Weather on mobile